sensor_id;sensor_type;location;lat;lon;timestamp;pressure;altitude;pressure_sealevel;temperature;humidity
33697;BME280;20031;43.416;23.232;2023-05-01T00:02:00;99956.50;;;13.24;70.37
33697;BME280;20031;43.416;23.232;2023-05-01T00:04:26;99956.25;;;13.19;71.06
33697;BME280;20031;43.416;23.232;2023-05-01T00:06:51;99959.41;;;13.15;71.21
33697;BME280;20031;43.416;23.232;2023-05-01T00:09:17;99958.91;;;13.11;71.62
33697;BME280;20031;43.416;23.232;2023-05-01T00:11:42;99958.28;;;13.09;71.86
33697;BME280;20031;43.416;23.232;2023-05-01T00:14:08;99960.09;;;13.09;71.78
33697;BME280;20031;43.416;23.232;2023-05-01T00:16:33;99961.25;;;13.06;71.71
33697;BME280;20031;43.416;23.232;2023-05-01T00:19:00;99968.28;;;13.06;72.05
33697;BME280;20031;43.416;23.232;2023-05-01T00:21:26;99971.25;;;13.03;72.13
33697;BME280;20031;43.416;23.232;2023-05-01T00:23:52;99965.56;;;12.99;72.38
33697;BME280;20031;43.416;23.232;2023-05-01T00:26:17;99970.63;;;13.01;72.64
33697;BME280;20031;43.416;23.232;2023-05-01T00:28:43;99967.53;;;12.97;72.34
33697;BME280;20031;43.416;23.232;2023-05-01T00:31:08;99974.13;;;12.93;71.79
33697;BME280;20031;43.416;23.232;2023-05-01T00:33:34;99967.59;;;12.89;72.22
33697;BME280;20031;43.416;23.232;2023-05-01T00:35:59;99977.59;;;12.86;72.01
33697;BME280;20031;43.416;23.232;2023-05-01T00:38:25;99971.56;;;12.85;72.26
33697;BME280;20031;43.416;23.232;2023-05-01T00:40:50;99976.16;;;12.83;71.77
33697;BME280;20031;43.416;23.232;2023-05-01T00:43:16;99980.38;;;12.84;72.03
33697;BME280;20031;43.416;23.232;2023-05-01T00:45:43;99974.19;;;12.77;71.69
33697;BME280;20031;43.416;23.232;2023-05-01T00:48:09;99975.19;;;12.76;71.94
33697;BME280;20031;43.416;23.232;2023-05-01T00:50:35;99982.38;;;12.74;71.93
33697;BME280;20031;43.416;23.232;2023-05-01T00:53:01;99982.38;;;12.74;72.46
33697;BME280;20031;43.416;23.232;2023-05-01T00:55:27;99982.44;;;12.67;72.73
33697;BME280;20031;43.416;23.232;2023-05-01T00:57:54;99980.53;;;12.61;73.12
33697;BME280;20031;43.416;23.232;2023-05-01T01:00:20;99978.31;;;12.50;73.86
33697;BME280;20031;43.416;23.232;2023-05-01T01:02:48;99991.06;;;12.45;74.21
33697;BME280;20031;43.416;23.232;2023-05-01T01:05:13;99985.19;;;12.43;74.49
33697;BME280;20031;43.416;23.232;2023-05-01T01:07:46;99986.16;;;12.42;74.20
33697;BME280;20031;43.416;23.232;2023-05-01T01:15:58;100004.84;;;12.31;76.07
33697;BME280;20031;43.416;23.232;2023-05-01T01:18:42;99997.38;;;12.28;75.51
33697;BME280;20031;43.416;23.232;2023-05-01T01:29:39;100003.22;;;12.30;75.67
33697;BME280;20031;43.416;23.232;2023-05-01T01:35:06;100009.06;;;12.32;75.02
33697;BME280;20031;43.416;23.232;2023-05-01T01:40:10;100003.75;;;12.25;74.52
33697;BME280;20031;43.416;23.232;2023-05-01T01:42:42;100007.84;;;12.20;74.74
33697;BME280;20031;43.416;23.232;2023-05-01T01:45:18;100003.94;;;12.16;74.47
33697;BME280;20031;43.416;23.232;2023-05-01T01:47:46;100006.72;;;12.15;74.85
33697;BME280;20031;43.416;23.232;2023-05-01T01:50:13;100005.56;;;12.17;74.85
33697;BME280;20031;43.416;23.232;2023-05-01T01:52:41;100008.00;;;12.19;74.67
33697;BME280;20031;43.416;23.232;2023-05-01T01:55:10;100006.19;;;12.19;74.30
33697;BME280;20031;43.416;23.232;2023-05-01T01:57:37;100008.69;;;12.13;74.27
33697;BME280;20031;43.416;23.232;2023-05-01T02:00:05;100006.59;;;12.08;74.33
33697;BME280;20031;43.416;23.232;2023-05-01T02:02:34;100008.19;;;12.09;74.74
33697;BME280;20031;43.416;23.232;2023-05-01T02:05:02;99998.59;;;12.10;74.68
33697;BME280;20031;43.416;23.232;2023-05-01T02:07:28;100002.97;;;12.09;74.69
33697;BME280;20031;43.416;23.232;2023-05-01T02:09:54;100004.63;;;12.10;74.52
33697;BME280;20031;43.416;23.232;2023-05-01T02:12:22;100009.03;;;12.10;74.90
33697;BME280;20031;43.416;23.232;2023-05-01T02:14:50;100009.03;;;12.10;74.96
33697;BME280;20031;43.416;23.232;2023-05-01T02:17:18;100015.41;;;12.07;74.97
33697;BME280;20031;43.416;23.232;2023-05-01T02:19:45;100009.69;;;12.04;75.07
33697;BME280;20031;43.416;23.232;2023-05-01T02:22:11;100012.97;;;11.98;75.63
33697;BME280;20031;43.416;23.232;2023-05-01T02:24:38;100017.56;;;11.88;75.40
33697;BME280;20031;43.416;23.232;2023-05-01T02:27:15;100017.44;;;11.81;76.44
33697;BME280;20031;43.416;23.232;2023-05-01T02:29:43;100011.22;;;11.82;76.55
33697;BME280;20031;43.416;23.232;2023-05-01T02:32:08;100022.66;;;11.81;77.05
33697;BME280;20031;43.416;23.232;2023-05-01T02:34:34;100015.47;;;11.83;77.15
33697;BME280;20031;43.416;23.232;2023-05-01T02:37:00;100018.88;;;11.84;77.25
33697;BME280;20031;43.416;23.232;2023-05-01T02:39:26;100021.66;;;11.82;77.32
33697;BME280;20031;43.416;23.232;2023-05-01T02:41:53;100029.16;;;11.85;77.14
33697;BME280;20031;43.416;23.232;2023-05-01T02:44:20;100021.66;;;11.82;76.93
33697;BME280;20031;43.416;23.232;2023-05-01T02:46:48;100022.66;;;11.81;77.45
33697;BME280;20031;43.416;23.232;2023-05-01T02:49:15;100024.25;;;11.82;77.31
33697;BME280;20031;43.416;23.232;2023-05-01T02:51:42;100024.09;;;11.84;77.08
33697;BME280;20031;43.416;23.232;2023-05-01T02:54:08;100024.59;;;11.87;77.23
33697;BME280;20031;43.416;23.232;2023-05-01T02:56:34;100021.97;;;11.87;77.13
33697;BME280;20031;43.416;23.232;2023-05-01T02:59:00;100028.50;;;11.83;76.52
33697;BME280;20031;43.416;23.232;2023-05-01T03:01:25;100031.63;;;11.79;76.63
33697;BME280;20031;43.416;23.232;2023-05-01T03:03:51;100032.75;;;11.76;76.87
33697;BME280;20031;43.416;23.232;2023-05-01T03:06:16;100030.81;;;11.78;77.13
33697;BME280;20031;43.416;23.232;2023-05-01T03:08:43;100037.59;;;11.95;76.98
33697;BME280;20031;43.416;23.232;2023-05-01T03:11:09;100042.50;;;11.98;76.11
33697;BME280;20031;43.416;23.232;2023-05-01T03:13:34;100039.09;;;11.90;75.83
33697;BME280;20031;43.416;23.232;2023-05-01T03:16:00;100032.75;;;11.84;76.24
33697;BME280;20031;43.416;23.232;2023-05-01T03:18:26;100040.09;;;11.81;75.87
33697;BME280;20031;43.416;23.232;2023-05-01T03:20:52;100040.25;;;11.79;75.77
33697;BME280;20031;43.416;23.232;2023-05-01T03:23:18;100038.81;;;11.77;75.53
33697;BME280;20031;43.416;23.232;2023-05-01T03:25:44;100042.41;;;11.76;75.38
33697;BME280;20031;43.416;23.232;2023-05-01T03:28:10;100039.78;;;11.68;75.62
33697;BME280;20031;43.416;23.232;2023-05-01T03:30:35;100049.41;;;11.60;74.85
33697;BME280;20031;43.416;23.232;2023-05-01T03:33:01;100056.59;;;11.50;75.03
33697;BME280;20031;43.416;23.232;2023-05-01T03:35:26;100056.44;;;11.43;75.61
33697;BME280;20031;43.416;23.232;2023-05-01T03:37:52;100054.28;;;11.47;75.77
33697;BME280;20031;43.416;23.232;2023-05-01T03:40:17;100058.88;;;11.45;76.04
33697;BME280;20031;43.416;23.232;2023-05-01T03:42:43;100063.78;;;11.48;76.07
33697;BME280;20031;43.416;23.232;2023-05-01T03:45:09;100068.03;;;11.49;75.95
33697;BME280;20031;43.416;23.232;2023-05-01T03:47:35;100077.13;;;11.53;75.79
33697;BME280;20031;43.416;23.232;2023-05-01T03:50:00;100069.94;;;11.47;75.58
33697;BME280;20031;43.416;23.232;2023-05-01T03:52:26;100082.69;;;11.50;75.77
33697;BME280;20031;43.416;23.232;2023-05-01T03:54:52;100084.34;;;11.59;75.89
33697;BME280;20031;43.416;23.232;2023-05-01T03:57:17;100090.19;;;11.61;75.68
33697;BME280;20031;43.416;23.232;2023-05-01T03:59:45;100080.91;;;11.66;75.65
33697;BME280;20031;43.416;23.232;2023-05-01T04:02:11;100084.28;;;11.82;75.64
33697;BME280;20031;43.416;23.232;2023-05-01T04:04:36;100086.38;;;11.95;75.82
33697;BME280;20031;43.416;23.232;2023-05-01T04:07:02;100089.97;;;12.10;75.35
33697;BME280;20031;43.416;23.232;2023-05-01T04:09:27;100090.75;;;12.18;75.28
33697;BME280;20031;43.416;23.232;2023-05-01T04:11:54;100095.75;;;12.27;74.45
33697;BME280;20031;43.416;23.232;2023-05-01T04:14:20;100100.13;;;12.35;74.25
33697;BME280;20031;43.416;23.232;2023-05-01T04:16:45;100104.72;;;12.41;73.69
33697;BME280;20031;43.416;23.232;2023-05-01T04:19:11;100106.38;;;12.34;73.06
33697;BME280;20031;43.416;23.232;2023-05-01T04:21:36;100110.28;;;12.38;73.40
33697;BME280;20031;43.416;23.232;2023-05-01T04:24:02;100114.03;;;12.35;73.09
33697;BME280;20031;43.416;23.232;2023-05-01T04:26:27;100122.66;;;12.36;73.06
33697;BME280;20031;43.416;23.232;2023-05-01T04:28:53;100127.59;;;12.31;72.98
33697;BME280;20031;43.416;23.232;2023-05-01T04:31:19;100131.50;;;12.27;73.48
33697;BME280;20031;43.416;23.232;2023-05-01T04:33:44;100131.34;;;12.21;73.03
33697;BME280;20031;43.416;23.232;2023-05-01T04:36:10;100132.03;;;12.07;73.33
33697;BME280;20031;43.416;23.232;2023-05-01T04:38:35;100133.19;;;11.96;74.07
33697;BME280;20031;43.416;23.232;2023-05-01T04:41:01;100139.41;;;11.87;74.40
33697;BME280;20031;43.416;23.232;2023-05-01T04:43:27;100142.00;;;11.95;74.74
33697;BME280;20031;43.416;23.232;2023-05-01T04:45:53;100139.38;;;12.03;74.84
33697;BME280;20031;43.416;23.232;2023-05-01T04:48:18;100140.81;;;12.14;75.25
33697;BME280;20031;43.416;23.232;2023-05-01T04:50:44;100140.81;;;12.29;75.06
33697;BME280;20031;43.416;23.232;2023-05-01T04:53:09;100152.53;;;12.41;74.74
33697;BME280;20031;43.416;23.232;2023-05-01T04:55:35;100152.00;;;12.54;74.64
33697;BME280;20031;43.416;23.232;2023-05-01T04:58:01;100155.19;;;12.72;74.46
33697;BME280;20031;43.416;23.232;2023-05-01T05:00:28;100146.50;;;12.87;74.55
33697;BME280;20031;43.416;23.232;2023-05-01T05:02:53;100143.53;;;12.98;73.81
33697;BME280;20031;43.416;23.232;2023-05-01T05:05:19;100155.53;;;13.15;73.42
33697;BME280;20031;43.416;23.232;2023-05-01T05:07:44;100160.66;;;13.30;72.80
33697;BME280;20031;43.416;23.232;2023-05-01T05:10:09;100164.31;;;13.44;72.20
33697;BME280;20031;43.416;23.232;2023-05-01T05:12:35;100163.91;;;13.55;71.98
33697;BME280;20031;43.416;23.232;2023-05-01T05:15:00;100168.41;;;13.69;70.97
33697;BME280;20031;43.416;23.232;2023-05-01T05:17:26;100164.72;;;13.77;70.88
33697;BME280;20031;43.416;23.232;2023-05-01T05:19:51;100165.66;;;13.84;69.98
33697;BME280;20031;43.416;23.232;2023-05-01T05:22:17;100170.47;;;13.95;70.21
33697;BME280;20031;43.416;23.232;2023-05-01T05:24:43;100165.28;;;14.10;69.54
33697;BME280;20031;43.416;23.232;2023-05-01T05:27:09;100165.03;;;14.19;68.90
33697;BME280;20031;43.416;23.232;2023-05-01T05:29:34;100170.94;;;14.35;68.84
33697;BME280;20031;43.416;23.232;2023-05-01T05:32:00;100172.56;;;14.51;68.26
33697;BME280;20031;43.416;23.232;2023-05-01T05:34:26;100175.44;;;14.70;67.88
33697;BME280;20031;43.416;23.232;2023-05-01T05:36:51;100173.63;;;14.85;67.10
33697;BME280;20031;43.416;23.232;2023-05-01T05:39:17;100172.16;;;14.97;67.13
33697;BME280;20031;43.416;23.232;2023-05-01T05:41:42;100174.13;;;15.09;66.40
33697;BME280;20031;43.416;23.232;2023-05-01T05:44:07;100179.13;;;15.19;66.41
33697;BME280;20031;43.416;23.232;2023-05-01T05:46:33;100185.34;;;15.32;66.54
33697;BME280;20031;43.416;23.232;2023-05-01T05:48:58;100179.59;;;15.43;66.86
33697;BME280;20031;43.416;23.232;2023-05-01T05:51:24;100184.63;;;15.59;66.62
33697;BME280;20031;43.416;23.232;2023-05-01T05:53:49;100185.19;;;15.75;66.55
33697;BME280;20031;43.416;23.232;2023-05-01T05:56:15;100184.53;;;15.94;65.58
33697;BME280;20031;43.416;23.232;2023-05-01T05:58:40;100191.53;;;16.08;65.09
33697;BME280;20031;43.416;23.232;2023-05-01T06:01:05;100178.22;;;16.09;64.49
33697;BME280;20031;43.416;23.232;2023-05-01T06:03:33;100188.66;;;16.24;64.34
33697;BME280;20031;43.416;23.232;2023-05-01T06:05:59;100188.16;;;16.35;63.55
33697;BME280;20031;43.416;23.232;2023-05-01T06:08:24;100193.53;;;16.54;63.68
33697;BME280;20031;43.416;23.232;2023-05-01T06:10:50;100189.56;;;16.71;63.04
33697;BME280;20031;43.416;23.232;2023-05-01T06:13:15;100191.69;;;16.88;62.85
33697;BME280;20031;43.416;23.232;2023-05-01T06:15:41;100191.88;;;16.86;61.59
33697;BME280;20031;43.416;23.232;2023-05-01T06:18:07;100196.53;;;16.85;61.84
33697;BME280;20031;43.416;23.232;2023-05-01T06:20:32;100199.03;;;16.99;61.71
33697;BME280;20031;43.416;23.232;2023-05-01T06:22:58;100192.19;;;17.11;61.46
33697;BME280;20031;43.416;23.232;2023-05-01T06:25:23;100195.47;;;17.19;60.84
33697;BME280;20031;43.416;23.232;2023-05-01T06:27:50;100187.38;;;17.21;60.80
33697;BME280;20031;43.416;23.232;2023-05-01T06:30:15;100198.38;;;17.24;60.98
33697;BME280;20031;43.416;23.232;2023-05-01T06:32:44;100195.34;;;17.27;60.63
33697;BME280;20031;43.416;23.232;2023-05-01T06:35:11;100194.38;;;17.41;60.96
33697;BME280;20031;43.416;23.232;2023-05-01T06:37:36;100204.94;;;17.60;60.59
33697;BME280;20031;43.416;23.232;2023-05-01T06:40:04;100199.53;;;17.75;60.29
33697;BME280;20031;43.416;23.232;2023-05-01T06:42:30;100204.81;;;17.88;59.84
33697;BME280;20031;43.416;23.232;2023-05-01T06:44:55;100210.09;;;18.00;59.78
33697;BME280;20031;43.416;23.232;2023-05-01T06:47:20;100201.34;;;18.13;59.46
33697;BME280;20031;43.416;23.232;2023-05-01T06:49:46;100210.72;;;18.35;58.91
33697;BME280;20031;43.416;23.232;2023-05-01T06:52:11;100203.41;;;18.43;58.48
33697;BME280;20031;43.416;23.232;2023-05-01T06:54:37;100209.50;;;18.50;57.09
33697;BME280;20031;43.416;23.232;2023-05-01T06:57:02;100211.94;;;18.39;57.08
33697;BME280;20031;43.416;23.232;2023-05-01T06:59:28;100213.13;;;18.42;57.10
33697;BME280;20031;43.416;23.232;2023-05-01T07:01:53;100217.59;;;18.55;57.03
33697;BME280;20031;43.416;23.232;2023-05-01T07:04:20;100214.50;;;18.84;57.02
33697;BME280;20031;43.416;23.232;2023-05-01T07:06:45;100213.91;;;18.88;55.33
33697;BME280;20031;43.416;23.232;2023-05-01T07:09:11;100220.94;;;19.13;55.55
33697;BME280;20031;43.416;23.232;2023-05-01T07:11:36;100219.28;;;19.19;54.21
33697;BME280;20031;43.416;23.232;2023-05-01T07:14:02;100220.69;;;19.28;54.51
33697;BME280;20031;43.416;23.232;2023-05-01T07:16:28;100220.22;;;19.37;53.83
33697;BME280;20031;43.416;23.232;2023-05-01T07:18:53;100216.94;;;19.48;53.47
33697;BME280;20031;43.416;23.232;2023-05-01T07:21:18;100220.50;;;19.60;53.78
33697;BME280;20031;43.416;23.232;2023-05-01T07:23:44;100226.50;;;19.80;53.33
33697;BME280;20031;43.416;23.232;2023-05-01T07:26:10;100224.63;;;19.93;52.66
33697;BME280;20031;43.416;23.232;2023-05-01T07:28:35;100230.47;;;20.01;51.70
33697;BME280;20031;43.416;23.232;2023-05-01T07:31:01;100234.28;;;20.05;51.64
33697;BME280;20031;43.416;23.232;2023-05-01T07:33:26;100234.94;;;20.25;51.81
33697;BME280;20031;43.416;23.232;2023-05-01T07:35:52;100234.78;;;20.20;51.22
33697;BME280;20031;43.416;23.232;2023-05-01T07:38:18;100227.50;;;20.40;51.72
33697;BME280;20031;43.416;23.232;2023-05-01T07:40:44;100231.13;;;20.63;50.88
33697;BME280;20031;43.416;23.232;2023-05-01T07:43:09;100229.88;;;20.72;49.30
33697;BME280;20031;43.416;23.232;2023-05-01T07:45:39;100226.19;;;20.73;49.31
33697;BME280;20031;43.416;23.232;2023-05-01T07:48:05;100231.78;;;20.83;49.80
33697;BME280;20031;43.416;23.232;2023-05-01T07:50:31;100239.59;;;20.96;49.13
33697;BME280;20031;43.416;23.232;2023-05-01T07:52:56;100238.06;;;21.06;49.12
33697;BME280;20031;43.416;23.232;2023-05-01T07:55:22;100239.66;;;21.25;48.88
33697;BME280;20031;43.416;23.232;2023-05-01T07:57:48;100234.13;;;21.27;47.49
33697;BME280;20031;43.416;23.232;2023-05-01T08:00:14;100229.50;;;21.40;48.08
33697;BME280;20031;43.416;23.232;2023-05-01T08:02:40;100226.19;;;21.45;47.03
33697;BME280;20031;43.416;23.232;2023-05-01T08:05:06;100238.34;;;21.52;46.77
33697;BME280;20031;43.416;23.232;2023-05-01T08:07:31;100241.44;;;21.49;47.57
33697;BME280;20031;43.416;23.232;2023-05-01T08:09:57;100236.53;;;21.64;47.97
33697;BME280;20031;43.416;23.232;2023-05-01T08:12:24;100235.34;;;21.60;47.57
33697;BME280;20031;43.416;23.232;2023-05-01T08:14:49;100233.38;;;21.55;46.67
33697;BME280;20031;43.416;23.232;2023-05-01T08:17:15;100228.53;;;21.52;46.82
33697;BME280;20031;43.416;23.232;2023-05-01T08:19:41;100232.13;;;21.58;47.25
33697;BME280;20031;43.416;23.232;2023-05-01T08:22:06;100236.00;;;21.73;47.57
33697;BME280;20031;43.416;23.232;2023-05-01T08:24:31;100238.16;;;21.94;46.78
33697;BME280;20031;43.416;23.232;2023-05-01T08:26:57;100233.56;;;22.01;46.58
33697;BME280;20031;43.416;23.232;2023-05-01T08:29:22;100232.91;;;22.17;46.30
33697;BME280;20031;43.416;23.232;2023-05-01T08:31:48;100239.19;;;22.22;45.43
33697;BME280;20031;43.416;23.232;2023-05-01T08:34:13;100242.41;;;22.24;45.57
33697;BME280;20031;43.416;23.232;2023-05-01T08:36:39;100238.13;;;22.35;45.62
33697;BME280;20031;43.416;23.232;2023-05-01T08:39:04;100233.28;;;22.43;45.21
33697;BME280;20031;43.416;23.232;2023-05-01T08:41:31;100229.84;;;22.65;44.90
33697;BME280;20031;43.416;23.232;2023-05-01T08:43:59;100229.75;;;22.72;44.20
33697;BME280;20031;43.416;23.232;2023-05-01T08:49:27;100227.41;;;22.87;42.99
33697;BME280;20031;43.416;23.232;2023-05-01T08:51:53;100220.47;;;22.74;42.75
33697;BME280;20031;43.416;23.232;2023-05-01T08:54:22;100225.69;;;23.04;42.58
33697;BME280;20031;43.416;23.232;2023-05-01T08:56:50;100217.25;;;22.95;42.20
33697;BME280;20031;43.416;23.232;2023-05-01T08:59:17;100222.44;;;23.02;42.17
33697;BME280;20031;43.416;23.232;2023-05-01T09:01:44;100223.13;;;23.08;41.58
33697;BME280;20031;43.416;23.232;2023-05-01T09:04:10;100218.38;;;23.10;42.51
33697;BME280;20031;43.416;23.232;2023-05-01T09:06:36;100227.56;;;23.31;42.69
33697;BME280;20031;43.416;23.232;2023-05-01T09:09:02;100216.66;;;23.44;41.63
33697;BME280;20031;43.416;23.232;2023-05-01T09:11:27;100223.94;;;23.48;42.20
33697;BME280;20031;43.416;23.232;2023-05-01T09:13:54;100217.75;;;23.59;42.37
33697;BME280;20031;43.416;23.232;2023-05-01T09:16:21;100226.06;;;23.74;41.88
33697;BME280;20031;43.416;23.232;2023-05-01T09:18:47;100223.78;;;23.66;42.11
33697;BME280;20031;43.416;23.232;2023-05-01T09:21:13;100222.34;;;23.47;42.45
33697;BME280;20031;43.416;23.232;2023-05-01T09:23:38;100216.66;;;23.44;43.05
33697;BME280;20031;43.416;23.232;2023-05-01T09:26:06;100220.53;;;23.64;42.40
33697;BME280;20031;43.416;23.232;2023-05-01T09:28:42;100231.84;;;23.59;41.56
33697;BME280;20031;43.416;23.232;2023-05-01T09:31:26;100232.63;;;23.99;41.69
33697;BME280;20031;43.416;23.232;2023-05-01T09:33:59;100227.16;;;24.22;40.53
33697;BME280;20031;43.416;23.232;2023-05-01T09:36:27;100223.16;;;24.36;40.08
33697;BME280;20031;43.416;23.232;2023-05-01T09:38:53;100228.16;;;24.49;39.70
33697;BME280;20031;43.416;23.232;2023-05-01T09:41:19;100222.50;;;24.45;40.16
33697;BME280;20031;43.416;23.232;2023-05-01T09:44:16;100220.00;;;24.22;39.61
33697;BME280;20031;43.416;23.232;2023-05-01T09:46:42;100209.03;;;24.35;40.28
33697;BME280;20031;43.416;23.232;2023-05-01T09:49:08;100205.25;;;24.48;39.64
33697;BME280;20031;43.416;23.232;2023-05-01T09:51:33;100216.44;;;24.66;39.87
33697;BME280;20031;43.416;23.232;2023-05-01T09:54:03;100210.88;;;24.67;39.58
33697;BME280;20031;43.416;23.232;2023-05-01T09:56:30;100205.53;;;24.67;38.58
33697;BME280;20031;43.416;23.232;2023-05-01T09:58:59;100202.63;;;24.69;37.91
33697;BME280;20031;43.416;23.232;2023-05-01T10:01:39;100210.47;;;24.59;37.60
33697;BME280;20031;43.416;23.232;2023-05-01T10:04:05;100198.06;;;24.48;38.79
33697;BME280;20031;43.416;23.232;2023-05-01T10:06:31;100196.38;;;24.80;38.92
33697;BME280;20031;43.416;23.232;2023-05-01T10:08:56;100191.66;;;25.03;38.25
33697;BME280;20031;43.416;23.232;2023-05-01T10:11:22;100183.44;;;25.31;38.55
33697;BME280;20031;43.416;23.232;2023-05-01T10:14:20;100198.88;;;25.50;37.41
33697;BME280;20031;43.416;23.232;2023-05-01T10:16:48;100186.53;;;25.44;37.59
33697;BME280;20031;43.416;23.232;2023-05-01T10:19:16;100196.97;;;25.46;37.80
33697;BME280;20031;43.416;23.232;2023-05-01T10:21:41;100186.13;;;25.57;38.34
33697;BME280;20031;43.416;23.232;2023-05-01T10:24:07;100186.66;;;25.54;38.38
33697;BME280;20031;43.416;23.232;2023-05-01T10:26:34;100180.03;;;25.62;38.58
33697;BME280;20031;43.416;23.232;2023-05-01T10:29:01;100176.31;;;25.63;37.80
33697;BME280;20031;43.416;23.232;2023-05-01T10:31:27;100170.13;;;25.57;37.38
33697;BME280;20031;43.416;23.232;2023-05-01T10:33:54;100170.31;;;25.51;37.74
33697;BME280;20031;43.416;23.232;2023-05-01T10:36:25;100178.41;;;25.61;37.97
33697;BME280;20031;43.416;23.232;2023-05-01T10:38:53;100168.63;;;25.66;37.63
33697;BME280;20031;43.416;23.232;2023-05-01T10:44:26;100164.13;;;25.67;37.39
33697;BME280;20031;43.416;23.232;2023-05-01T10:46:52;100164.31;;;25.86;37.14
33697;BME280;20031;43.416;23.232;2023-05-01T10:49:18;100159.63;;;26.03;37.32
33697;BME280;20031;43.416;23.232;2023-05-01T10:54:31;100160.38;;;26.71;37.21
33697;BME280;20031;43.416;23.232;2023-05-01T10:56:59;100161.50;;;26.80;37.04
33697;BME280;20031;43.416;23.232;2023-05-01T10:59:26;100161.78;;;26.83;36.25
33697;BME280;20031;43.416;23.232;2023-05-01T11:01:53;100158.00;;;26.74;35.70
33697;BME280;20031;43.416;23.232;2023-05-01T11:09:47;100158.06;;;25.76;36.73
33697;BME280;20031;43.416;23.232;2023-05-01T11:15:31;100166.88;;;24.32;39.87
33697;BME280;20031;43.416;23.232;2023-05-01T11:17:56;100167.13;;;24.47;40.05
33697;BME280;20031;43.416;23.232;2023-05-01T11:22:55;100153.94;;;25.42;38.35
33697;BME280;20031;43.416;23.232;2023-05-01T11:25:23;100152.69;;;26.02;37.65
33697;BME280;20031;43.416;23.232;2023-05-01T11:27:53;100152.06;;;26.26;36.56
33697;BME280;20031;43.416;23.232;2023-05-01T11:30:19;100161.06;;;25.84;37.26
33697;BME280;20031;43.416;23.232;2023-05-01T11:32:46;100153.66;;;25.39;37.84
33697;BME280;20031;43.416;23.232;2023-05-01T11:35:18;100162.31;;;25.03;38.97
33697;BME280;20031;43.416;23.232;2023-05-01T11:37:44;100152.50;;;24.87;38.78
33697;BME280;20031;43.416;23.232;2023-05-01T11:40:23;100150.66;;;25.57;38.38
33697;BME280;20031;43.416;23.232;2023-05-01T11:42:50;100146.28;;;25.46;36.80
33697;BME280;20031;43.416;23.232;2023-05-01T11:45:18;100140.28;;;25.13;38.12
33697;BME280;20031;43.416;23.232;2023-05-01T11:47:44;100142.94;;;25.60;38.21
33697;BME280;20031;43.416;23.232;2023-05-01T11:50:09;100143.22;;;25.90;36.49
33697;BME280;20031;43.416;23.232;2023-05-01T11:52:43;100134.41;;;26.21;35.79
33697;BME280;20031;43.416;23.232;2023-05-01T11:55:09;100131.47;;;26.68;34.24
33697;BME280;20031;43.416;23.232;2023-05-01T11:57:47;100129.53;;;26.49;33.70
33697;BME280;20031;43.416;23.232;2023-05-01T12:00:29;100134.63;;;27.01;33.48
33697;BME280;20031;43.416;23.232;2023-05-01T12:03:00;100119.44;;;27.46;32.57
33697;BME280;20031;43.416;23.232;2023-05-01T12:05:28;100125.41;;;27.63;31.12
33697;BME280;20031;43.416;23.232;2023-05-01T12:08:14;100127.56;;;27.91;33.26
33697;BME280;20031;43.416;23.232;2023-05-01T12:10:42;100128.38;;;27.86;31.05
33697;BME280;20031;43.416;23.232;2023-05-01T12:13:10;100129.97;;;28.12;30.41
33697;BME280;20031;43.416;23.232;2023-05-01T12:15:38;100124.88;;;28.31;31.76
33697;BME280;20031;43.416;23.232;2023-05-01T12:18:05;100115.13;;;28.69;30.93
33697;BME280;20031;43.416;23.232;2023-05-01T12:20:44;100108.16;;;28.58;30.67
33697;BME280;20031;43.416;23.232;2023-05-01T12:23:11;100108.22;;;28.38;31.23
33697;BME280;20031;43.416;23.232;2023-05-01T12:25:38;100117.94;;;28.15;32.37
33697;BME280;20031;43.416;23.232;2023-05-01T12:28:11;100103.97;;;27.83;31.86
33697;BME280;20031;43.416;23.232;2023-05-01T12:30:37;100105.84;;;27.77;32.67
33697;BME280;20031;43.416;23.232;2023-05-01T12:33:17;100099.66;;;27.32;32.69
33697;BME280;20031;43.416;23.232;2023-05-01T12:35:44;100109.00;;;27.45;32.78
33697;BME280;20031;43.416;23.232;2023-05-01T12:38:19;100102.66;;;27.71;32.45
33697;BME280;20031;43.416;23.232;2023-05-01T12:40:57;100104.50;;;27.60;31.50
33697;BME280;20031;43.416;23.232;2023-05-01T12:43:50;100101.97;;;26.99;32.80
33697;BME280;20031;43.416;23.232;2023-05-01T12:46:16;100104.78;;;27.69;32.28
33697;BME280;20031;43.416;23.232;2023-05-01T12:48:42;100100.75;;;28.01;31.00
33697;BME280;20031;43.416;23.232;2023-05-01T12:51:07;100100.47;;;28.27;31.44
33697;BME280;20031;43.416;23.232;2023-05-01T12:53:33;100094.81;;;28.38;30.69
33697;BME280;20031;43.416;23.232;2023-05-01T12:55:58;100092.97;;;28.24;30.66
33697;BME280;20031;43.416;23.232;2023-05-01T12:58:36;100090.84;;;27.47;31.35
33697;BME280;20031;43.416;23.232;2023-05-01T13:01:01;100090.69;;;26.92;32.37
33697;BME280;20031;43.416;23.232;2023-05-01T13:03:28;100092.81;;;26.34;32.92
33697;BME280;20031;43.416;23.232;2023-05-01T13:05:58;100084.84;;;26.39;33.25
33697;BME280;20031;43.416;23.232;2023-05-01T13:08:31;100088.78;;;26.88;32.74
33697;BME280;20031;43.416;23.232;2023-05-01T13:10:59;100092.56;;;26.36;32.45
33697;BME280;20031;43.416;23.232;2023-05-01T13:13:27;100090.28;;;25.82;32.84
33697;BME280;20031;43.416;23.232;2023-05-01T13:15:53;100087.31;;;26.15;33.63
33697;BME280;20031;43.416;23.232;2023-05-01T13:18:18;100087.84;;;26.48;33.67
33697;BME280;20031;43.416;23.232;2023-05-01T13:20:44;100087.69;;;26.84;33.19